Terminal Aerodrome Forecast
Issued by NWS

Home | Current Version | Previous Version | Text Only | Print | Product List | Glossary On
Versions: 1 2 3 4 5 6 7 8 9 10 11 12 13 14 15 16 17 18 19 20 21 22 23 24 25 26 27 28 29
000
FTUS41 KRNK 040535
TAFBCB
TAF
KBCB 040535Z 0406/0506 23004KT P6SM SCT060 BKN140 OVC250
     FM041400 27008KT P6SM SCT040 BKN250
     FM041700 29008G15KT P6SM SCT050
     FM050000 30004KT P6SM SCT250=

USA.gov is the U.S. government's official web portal to all federal, state and local government web resources and services.